createdAt,value
2018-04-07T00:01:47.589Z,5.83
2018-04-07T00:04:13.880Z,5.40
2018-04-07T00:06:40.938Z,6.33
2018-04-07T00:09:07.240Z,6.30
2018-04-07T00:11:34.261Z,4.67
2018-04-07T00:14:01.651Z,5.47
2018-04-07T00:16:28.627Z,7.43
2018-04-07T00:18:54.956Z,6.17
2018-04-07T00:21:21.253Z,7.00
2018-04-07T00:23:48.300Z,5.20
2018-04-07T00:26:15.351Z,4.90
2018-04-07T00:28:42.443Z,6.37
2018-04-07T00:31:08.742Z,5.83
2018-04-07T00:33:35.821Z,6.27
2018-04-07T00:36:02.101Z,5.00
2018-04-07T00:38:28.401Z,6.40
2018-04-07T00:40:55.562Z,5.80
2018-04-07T00:43:22.089Z,6.10
2018-04-07T00:45:48.386Z,5.50
2018-04-07T00:48:14.689Z,5.27
2018-04-07T00:50:41.788Z,6.07
2018-04-07T00:53:08.085Z,5.80
2018-04-07T00:55:34.359Z,4.73
2018-04-07T00:58:00.719Z,5.77
2018-04-07T01:00:27.048Z,5.50
2018-04-07T01:02:53.509Z,5.10
2018-04-07T01:05:19.859Z,6.50
2018-04-07T01:07:46.133Z,7.50
2018-04-07T01:10:12.527Z,5.83
2018-04-07T01:12:38.996Z,6.90
2018-04-07T01:15:05.305Z,4.67
2018-04-07T01:17:31.985Z,4.93
2018-04-07T01:19:59.036Z,5.87
2018-04-07T01:22:26.108Z,6.47
2018-04-07T01:24:52.425Z,5.07
2018-04-07T01:27:18.782Z,7.57
2018-04-07T01:29:45.086Z,6.07
2018-04-07T01:32:12.110Z,6.47
2018-04-07T01:34:38.389Z,5.40
2018-04-07T01:37:04.700Z,5.93
2018-04-07T01:39:31.773Z,6.00
2018-04-07T01:41:58.110Z,5.20
2018-04-07T01:44:24.406Z,6.90
2018-04-07T01:46:51.450Z,7.00
2018-04-07T01:49:18.490Z,5.80
2018-04-07T01:51:45.511Z,4.90
2018-04-07T01:54:11.792Z,5.80
2018-04-07T01:56:38.080Z,4.93
2018-04-07T01:59:04.393Z,7.97
2018-04-07T02:01:30.741Z,6.07
2018-04-07T02:03:57.028Z,5.90
2018-04-07T02:06:23.337Z,7.17
2018-04-07T02:08:50.388Z,5.97
2018-04-07T02:11:17.441Z,6.30
2018-04-07T02:13:43.736Z,6.47
2018-04-07T02:16:10.113Z,5.53
2018-04-07T02:18:36.486Z,6.60
2018-04-07T02:21:02.871Z,6.13
2018-04-07T02:23:29.157Z,6.03
2018-04-07T02:25:55.456Z,6.07
2018-04-07T02:28:21.774Z,5.10
2018-04-07T02:30:48.077Z,6.40
2018-04-07T02:33:14.465Z,7.33
2018-04-07T02:35:40.886Z,5.47
2018-04-07T02:38:07.174Z,5.43
2018-04-07T02:40:34.246Z,6.00
2018-04-07T02:43:00.522Z,6.40
2018-04-07T02:45:26.820Z,5.23
2018-04-07T02:47:54.008Z,5.47
2018-04-07T02:50:20.290Z,7.53
2018-04-07T02:52:46.596Z,5.17
2018-04-07T02:55:13.661Z,6.93
2018-04-07T02:57:39.980Z,7.53
2018-04-07T03:00:06.298Z,6.70
2018-04-07T03:02:33.345Z,6.03
2018-04-07T03:05:00.407Z,6.87
2018-04-07T03:07:27.433Z,8.00
2018-04-07T03:09:54.475Z,6.57
2018-04-07T03:12:20.784Z,6.27
2018-04-07T03:14:47.088Z,6.33
2018-04-07T03:17:13.932Z,6.57
2018-04-07T03:19:40.207Z,6.23
2018-04-07T03:22:06.491Z,6.13
2018-04-07T03:24:32.761Z,7.60
2018-04-07T03:26:59.052Z,6.23
2018-04-07T03:29:25.352Z,5.60
2018-04-07T03:31:53.017Z,5.93
2018-04-07T03:34:20.052Z,6.70
2018-04-07T03:36:47.984Z,5.63
2018-04-07T03:39:14.289Z,6.63
2018-04-07T03:41:40.585Z,10.27
2018-04-07T03:44:07.619Z,5.90
2018-04-07T03:46:33.900Z,6.47
2018-04-07T03:49:01.090Z,7.47
2018-04-07T03:51:27.382Z,6.10
2018-04-07T03:53:53.684Z,6.80
2018-04-07T03:56:20.725Z,7.87
2018-04-07T03:58:47.769Z,6.87
2018-04-07T04:01:14.832Z,6.43
2018-04-07T04:03:41.910Z,6.37
2018-04-07T04:06:08.231Z,7.63
2018-04-07T04:08:34.529Z,6.33
2018-04-07T04:11:01.565Z,5.70
2018-04-07T04:13:27.857Z,7.23
2018-04-07T04:15:54.171Z,6.83
2018-04-07T04:18:20.499Z,7.30
2018-04-07T04:20:46.781Z,6.53
2018-04-07T04:23:13.092Z,7.47
2018-04-07T04:25:39.380Z,6.53
2018-04-07T04:28:06.421Z,5.17
2018-04-07T04:30:33.463Z,6.87
2018-04-07T04:33:00.482Z,6.90
2018-04-07T04:35:26.794Z,6.73
2018-04-07T04:37:53.105Z,5.37
2018-04-07T04:40:19.399Z,6.83
2018-04-07T04:42:46.451Z,5.97
2018-04-07T04:45:13.472Z,6.97
2018-04-07T04:47:39.764Z,7.60
2018-04-07T04:50:06.072Z,6.30
2018-04-07T04:52:32.345Z,8.57
2018-04-07T04:54:58.625Z,7.80
2018-04-07T04:57:26.439Z,9.50
2018-04-07T04:59:52.743Z,10.33
2018-04-07T05:02:19.032Z,7.90
2018-04-07T05:04:46.060Z,9.93
2018-04-07T05:07:12.363Z,11.17
2018-04-07T05:09:38.689Z,13.30
2018-04-07T05:12:04.998Z,14.33
2018-04-07T05:14:31.303Z,20.43
2018-04-07T05:16:58.379Z,1999.90
2018-04-07T05:19:24.719Z,1999.90
2018-04-07T05:21:51.039Z,1999.90
2018-04-07T05:24:17.351Z,1999.90
2018-04-07T05:26:44.384Z,1999.90
2018-04-07T05:29:10.659Z,1999.90
2018-04-07T05:31:36.961Z,1999.90
2018-04-07T05:34:04.059Z,1999.90
2018-04-07T05:36:30.365Z,27.80
2018-04-07T05:38:56.666Z,1999.90
2018-04-07T05:41:23.677Z,1999.90
2018-04-07T05:43:49.992Z,1999.90
2018-04-07T05:46:16.306Z,1999.90
2018-04-07T05:48:42.595Z,1999.90
2018-04-07T05:51:08.883Z,1999.90
2018-04-07T05:53:35.173Z,1999.90
2018-04-07T05:56:02.230Z,21.20
2018-04-07T05:58:28.976Z,15.33
2018-04-07T06:00:55.289Z,11.43
2018-04-07T06:03:22.313Z,11.27
2018-04-07T06:05:48.798Z,11.20
2018-04-07T06:08:15.122Z,11.23
2018-04-07T06:10:41.413Z,11.20
2018-04-07T06:13:07.772Z,10.10
2018-04-07T06:15:34.806Z,9.80
2018-04-07T06:18:01.910Z,9.90
2018-04-07T06:20:28.328Z,8.70
2018-04-07T06:22:54.650Z,9.63
2018-04-07T06:25:20.946Z,8.87
2018-04-07T06:27:48.017Z,7.90
2018-04-07T06:30:14.299Z,8.00
2018-04-07T06:32:40.840Z,8.70
2018-04-07T06:35:07.129Z,8.30
2018-04-07T06:37:33.428Z,8.27
2018-04-07T06:40:00.472Z,7.72
2018-04-07T06:42:27.535Z,8.35
2018-04-07T06:44:54.564Z,7.53
2018-04-07T06:47:21.622Z,8.15
2018-04-07T06:49:49.015Z,7.70
2018-04-07T06:52:15.317Z,7.40
2018-04-07T06:54:41.629Z,7.30
2018-04-07T06:57:08.679Z,7.28
2018-04-07T06:59:35.794Z,8.00
2018-04-07T07:02:02.137Z,7.97
2018-04-07T07:04:28.547Z,9.88
2018-04-07T07:06:54.841Z,8.02
2018-04-07T07:09:21.170Z,7.18
2018-04-07T07:11:48.268Z,7.78
2018-04-07T07:14:14.622Z,7.05
2018-04-07T07:16:41.094Z,7.28
2018-04-07T07:19:07.429Z,6.32
2018-04-07T07:21:33.783Z,6.03
2018-04-07T07:24:00.097Z,6.45
2018-04-07T07:26:26.417Z,6.62
2018-04-07T07:28:52.730Z,6.53
2018-04-07T07:31:19.837Z,6.00
2018-04-07T07:33:46.328Z,5.95
2018-04-07T07:36:12.668Z,5.85
2018-04-07T07:38:39.184Z,6.20
2018-04-07T07:41:06.272Z,6.40
2018-04-07T07:43:32.562Z,6.07
2018-04-07T07:45:59.700Z,5.30
2018-04-07T07:48:26.070Z,5.62
2018-04-07T07:50:52.426Z,5.55
2018-04-07T07:53:18.671Z,5.82
2018-04-07T07:55:44.998Z,5.62
2018-04-07T07:58:11.302Z,6.10
2018-04-07T08:00:37.600Z,5.70
2018-04-07T08:03:04.615Z,5.70
2018-04-07T08:05:30.944Z,6.78
2018-04-07T08:07:57.529Z,5.50
2018-04-07T08:10:24.002Z,6.40
2018-04-07T08:12:50.320Z,4.75
2018-04-07T08:15:16.644Z,5.70
2018-04-07T08:17:42.940Z,6.62
2018-04-07T08:20:10.033Z,5.53
2018-04-07T08:22:36.357Z,6.10
2018-04-07T08:25:02.697Z,5.47
2018-04-07T08:27:29.014Z,4.90
2018-04-07T08:29:55.296Z,5.45
2018-04-07T08:32:21.598Z,6.65
2018-04-07T08:34:47.930Z,6.93
2018-04-07T08:37:14.897Z,6.20
2018-04-07T08:39:40.567Z,6.00
2018-04-07T08:42:06.872Z,5.83
2018-04-07T08:44:33.893Z,5.70
2018-04-07T08:47:00.201Z,5.47
2018-04-07T08:49:26.495Z,5.90
2018-04-07T08:51:52.769Z,5.27
2018-04-07T08:54:19.063Z,4.67
2018-04-07T08:56:45.361Z,4.57
2018-04-07T08:59:12.462Z,4.83
2018-04-07T09:01:38.779Z,18.17
2018-04-07T09:04:05.080Z,11.53
2018-04-07T09:06:32.128Z,5.53
2018-04-07T09:08:59.224Z,5.07
2018-04-07T09:11:25.518Z,5.63
2018-04-07T09:13:51.812Z,5.17
2018-04-07T09:16:18.100Z,4.00
2018-04-07T09:18:44.405Z,5.10
2018-04-07T09:21:11.457Z,10.13
2018-04-07T09:23:37.781Z,7.90
2018-04-07T09:26:04.808Z,6.63
2018-04-07T09:28:31.096Z,6.00
2018-04-07T09:31:03.397Z,6.23
2018-04-07T09:33:29.697Z,3.70
2018-04-07T09:35:56.949Z,3.80
2018-04-07T09:38:23.232Z,3.83
2018-04-07T09:40:50.273Z,3.20
2018-04-07T09:43:16.658Z,3.87
2018-04-07T09:45:42.933Z,4.53
2018-04-07T09:48:09.225Z,5.13
2018-04-07T09:50:35.537Z,4.27
2018-04-07T09:53:01.874Z,3.73
2018-04-07T09:55:28.173Z,4.37
2018-04-07T09:57:55.212Z,3.20
2018-04-07T10:00:22.499Z,3.53
2018-04-07T10:02:48.828Z,4.47
2018-04-07T10:05:15.400Z,3.83
2018-04-07T10:07:41.715Z,4.73
2018-04-07T10:10:08.023Z,3.60
2018-04-07T10:12:34.357Z,5.60
2018-04-07T10:15:00.645Z,4.33
2018-04-07T10:17:26.973Z,3.23
2018-04-07T10:19:53.268Z,5.20
2018-04-07T10:22:19.563Z,4.20
2018-04-07T10:24:46.604Z,4.97
2018-04-07T10:27:13.650Z,4.00
2018-04-07T10:29:40.703Z,7.93
2018-04-07T10:32:07.746Z,7.63
2018-04-07T10:34:34.790Z,7.93
2018-04-07T10:37:01.814Z,7.63
2018-04-07T10:39:28.105Z,6.73
2018-04-07T10:41:54.411Z,9.73
2018-04-07T10:44:21.483Z,5.83
2018-04-07T10:46:47.787Z,5.83
2018-04-07T10:49:14.817Z,7.13
2018-04-07T10:51:41.100Z,4.97
2018-04-07T10:54:07.415Z,7.87
2018-04-07T10:56:33.748Z,8.40
2018-04-07T10:59:00.051Z,7.03
2018-04-07T11:01:27.080Z,8.93
2018-04-07T11:03:53.390Z,7.00
2018-04-07T11:06:19.693Z,9.63
2018-04-07T11:08:45.997Z,9.00
2018-04-07T11:11:12.296Z,6.63
2018-04-07T11:13:40.014Z,10.63
2018-04-07T11:16:06.319Z,9.03
2018-04-07T11:18:33.521Z,7.93
2018-04-07T11:20:59.826Z,7.40
2018-04-07T11:23:26.159Z,9.27
2018-04-07T11:25:52.453Z,8.17
2018-04-07T11:28:19.533Z,7.73
2018-04-07T11:30:45.930Z,6.10
2018-04-07T11:33:12.964Z,6.73
2018-04-07T11:35:39.315Z,5.73
2018-04-07T11:38:06.374Z,7.50
2018-04-07T11:40:32.666Z,4.50
2018-04-07T11:42:58.977Z,7.43
2018-04-07T11:45:25.284Z,7.50
2018-04-07T11:47:51.645Z,6.47
2018-04-07T11:50:17.972Z,5.40
2018-04-07T11:52:44.283Z,6.43
2018-04-07T11:55:10.598Z,5.20
2018-04-07T11:57:36.893Z,5.90
2018-04-07T12:00:03.220Z,6.73
2018-04-07T12:02:29.570Z,5.97
2018-04-07T12:04:55.845Z,4.87
2018-04-07T12:07:22.177Z,4.30
2018-04-07T12:09:48.491Z,4.40
2018-04-07T12:12:14.805Z,3.87
2018-04-07T12:14:41.882Z,4.50
2018-04-07T12:17:08.264Z,5.30
2018-04-07T12:19:34.574Z,6.47
2018-04-07T12:22:00.871Z,7.20
2018-04-07T12:24:27.171Z,6.40
2018-04-07T12:26:54.222Z,5.73
2018-04-07T12:29:21.243Z,5.53
2018-04-07T12:31:47.529Z,5.53
2018-04-07T12:34:13.848Z,4.97
2018-04-07T12:36:40.155Z,4.60
2018-04-07T12:39:07.278Z,4.83
2018-04-07T12:41:33.575Z,4.00
2018-04-07T12:43:59.865Z,5.50
2018-04-07T12:46:27.010Z,4.67
2018-04-07T12:48:54.094Z,4.63
2018-04-07T12:51:20.380Z,5.97
2018-04-07T12:53:46.775Z,6.43
2018-04-07T12:56:13.067Z,4.43
2018-04-07T12:58:40.129Z,3.47
2018-04-07T13:01:06.743Z,5.73
2018-04-07T13:03:34.151Z,7.70
2018-04-07T13:06:00.462Z,4.37
2018-04-07T13:08:26.765Z,5.93
2018-04-07T13:10:53.854Z,4.60
2018-04-07T13:13:20.152Z,5.70
2018-04-07T13:15:47.189Z,5.77
2018-04-07T13:18:14.238Z,5.60
2018-04-07T13:20:41.322Z,4.87
2018-04-07T13:23:07.652Z,5.57
2018-04-07T13:25:33.951Z,4.37
2018-04-07T13:28:01.042Z,3.23
2018-04-07T13:30:27.374Z,3.43
2018-04-07T13:32:53.733Z,3.50
2018-04-07T13:35:20.032Z,4.07
2018-04-07T13:37:46.317Z,4.30
2018-04-07T13:40:13.373Z,4.27
2018-04-07T13:42:40.417Z,3.40
2018-04-07T13:45:07.454Z,3.93
2018-04-07T13:47:33.763Z,3.90
2018-04-07T13:50:00.061Z,3.97
2018-04-07T13:52:26.379Z,3.87
2018-04-07T13:54:52.700Z,4.17
2018-04-07T13:57:19.020Z,4.10
2018-04-07T13:59:46.201Z,2.90
2018-04-07T14:02:12.521Z,4.10
2018-04-07T14:04:38.823Z,4.20
2018-04-07T14:07:05.875Z,5.40
2018-04-07T14:09:32.923Z,6.00
2018-04-07T14:12:00.002Z,6.23
2018-04-07T14:14:26.310Z,3.57
2018-04-07T14:16:53.519Z,3.67
2018-04-07T14:19:19.862Z,3.40
2018-04-07T14:21:46.284Z,3.10
2018-04-07T14:24:12.593Z,2.87
2018-04-07T14:26:38.998Z,2.97
2018-04-07T14:29:05.329Z,2.93
2018-04-07T14:31:31.644Z,3.13
2018-04-07T14:33:58.703Z,3.77
2018-04-07T14:36:25.753Z,4.40
2018-04-07T14:38:52.809Z,4.00
2018-04-07T14:41:19.208Z,3.20
2018-04-07T14:43:45.499Z,3.13
2018-04-07T14:46:11.777Z,3.90
2018-04-07T14:48:38.818Z,2.67
2018-04-07T14:51:05.142Z,4.10
2018-04-07T14:53:31.440Z,2.77
2018-04-07T14:55:57.856Z,3.87
2018-04-07T14:58:24.169Z,3.47
2018-04-07T15:00:51.221Z,4.43
2018-04-07T15:03:17.582Z,3.60
2018-04-07T15:05:43.886Z,3.33
2018-04-07T15:08:10.166Z,6.00
2018-04-07T15:10:36.444Z,4.97
2018-04-07T15:13:02.760Z,8.27
2018-04-07T15:15:29.794Z,6.73
2018-04-07T15:17:57.654Z,5.90
2018-04-07T15:20:23.945Z,4.50
2018-04-07T15:22:50.221Z,5.70
2018-04-07T15:25:16.530Z,6.67
2018-04-07T15:27:42.837Z,4.47
2018-04-07T15:30:09.126Z,4.87
2018-04-07T15:32:36.180Z,5.90
2018-04-07T15:35:03.221Z,5.00
2018-04-07T15:37:30.272Z,5.33
2018-04-07T15:39:57.325Z,4.93
2018-04-07T15:42:24.377Z,4.83
2018-04-07T15:44:51.417Z,5.37
2018-04-07T15:47:18.448Z,6.87
2018-04-07T15:49:44.865Z,5.80
2018-04-07T15:52:11.171Z,4.93
2018-04-07T15:54:37.493Z,4.47
2018-04-07T15:57:03.791Z,6.23
2018-04-07T15:59:30.832Z,5.93
2018-04-07T16:01:57.906Z,5.73
2018-04-07T16:04:24.228Z,5.87
2018-04-07T16:06:50.544Z,7.93
2018-04-07T16:09:17.638Z,5.77
2018-04-07T16:11:43.956Z,5.10
2018-04-07T16:14:10.288Z,6.03
2018-04-07T16:16:36.619Z,5.03
2018-04-07T16:19:02.959Z,4.43
2018-04-07T16:21:29.289Z,5.03
2018-04-07T16:23:55.592Z,5.07
2018-04-07T16:26:22.628Z,4.10
2018-04-07T16:28:49.653Z,6.53
2018-04-07T16:31:15.974Z,3.43
2018-04-07T16:33:42.288Z,4.67
2018-04-07T16:36:08.606Z,3.37
2018-04-07T16:38:34.906Z,3.60
2018-04-07T16:41:01.994Z,3.83
2018-04-07T16:43:28.265Z,3.00
2018-04-07T16:45:54.617Z,6.03
2018-04-07T16:48:20.905Z,3.93
2018-04-07T16:50:47.225Z,3.53
2018-04-07T16:53:13.540Z,4.33
2018-04-07T16:55:39.868Z,2.97
2018-04-07T16:58:06.166Z,4.07
2018-04-07T17:00:33.329Z,2.17
2018-04-07T17:02:59.557Z,3.03
2018-04-07T17:05:25.849Z,3.20
2018-04-07T17:07:52.133Z,2.90
2018-04-07T17:10:18.436Z,2.27
2018-04-07T17:12:45.483Z,6.33
2018-04-07T17:15:12.532Z,3.43
2018-04-07T17:17:39.617Z,4.73
2018-04-07T17:20:05.924Z,2.93
2018-04-07T17:22:32.222Z,4.40
2018-04-07T17:24:58.501Z,3.57
2018-04-07T17:27:24.827Z,5.00
2018-04-07T17:29:52.071Z,4.80
2018-04-07T17:32:18.412Z,5.63
2018-04-07T17:34:44.710Z,3.23
2018-04-07T17:37:11.745Z,3.47
2018-04-07T17:39:38.233Z,2.93
2018-04-07T17:42:04.587Z,5.03
2018-04-07T17:44:31.020Z,3.10
2018-04-07T17:46:57.311Z,3.53
2018-04-07T17:49:23.589Z,4.27
2018-04-07T17:51:49.920Z,5.03
2018-04-07T17:54:16.221Z,5.73
2018-04-07T17:56:42.548Z,4.37
2018-04-07T17:59:08.854Z,4.00
2018-04-07T18:01:35.891Z,3.20
2018-04-07T18:04:02.924Z,4.30
2018-04-07T18:06:29.230Z,3.37
2018-04-07T18:08:55.549Z,4.00
2018-04-07T18:11:27.821Z,8.67
2018-04-07T18:13:54.093Z,7.63
2018-04-07T18:16:21.129Z,5.13
2018-04-07T18:18:47.427Z,3.87
2018-04-07T18:21:13.728Z,3.93
2018-04-07T18:23:40.016Z,6.67
2018-04-07T18:26:06.288Z,5.00
2018-04-07T18:28:32.626Z,4.50
2018-04-07T18:30:58.932Z,3.53
2018-04-07T18:33:25.980Z,7.13
2018-04-07T18:35:53.010Z,7.13
2018-04-07T18:38:19.388Z,4.53
2018-04-07T18:40:45.725Z,5.00
2018-04-07T18:43:12.035Z,5.10
2018-04-07T18:45:38.388Z,5.80
2018-04-07T18:48:04.746Z,5.30
2018-04-07T18:50:31.038Z,4.60
2018-04-07T18:52:57.395Z,5.07
2018-04-07T18:55:23.690Z,6.40
2018-04-07T18:57:49.990Z,7.77
2018-04-07T19:00:16.295Z,90.00
2018-04-07T19:02:42.584Z,106.40
2018-04-07T19:05:09.635Z,86.93
2018-04-07T19:07:35.973Z,68.00
2018-04-07T19:10:02.324Z,31.80
2018-04-07T19:12:28.600Z,17.30
2018-04-07T19:14:54.907Z,8.13
2018-04-07T19:17:21.208Z,7.07
2018-04-07T19:19:47.504Z,5.80
2018-04-07T19:22:14.524Z,4.60
2018-04-07T19:24:40.825Z,4.70
2018-04-07T19:27:07.128Z,4.40
2018-04-07T19:29:33.408Z,4.47
2018-04-07T19:32:00.113Z,4.57
2018-04-07T19:34:26.444Z,5.03
2018-04-07T19:36:53.528Z,7.00
2018-04-07T19:39:19.906Z,3.60
2018-04-07T19:41:46.959Z,6.07
2018-04-07T19:44:13.250Z,5.73
2018-04-07T19:46:40.519Z,6.03
2018-04-07T19:49:07.565Z,5.53
2018-04-07T19:51:33.919Z,6.40
2018-04-07T19:54:00.208Z,5.67
2018-04-07T19:56:26.503Z,5.77
2018-04-07T19:58:52.809Z,6.17
2018-04-07T20:01:19.148Z,5.47
2018-04-07T20:03:46.142Z,6.43
2018-04-07T20:06:12.425Z,5.00
2018-04-07T20:08:38.708Z,6.63
2018-04-07T20:11:05.029Z,5.80
2018-04-07T20:13:31.331Z,5.67
2018-04-07T20:15:57.632Z,5.90
2018-04-07T20:18:24.678Z,5.20
2018-04-07T20:20:51.715Z,8.27
2018-04-07T20:23:18.777Z,6.73
2018-04-07T20:25:45.833Z,6.93
2018-04-07T20:28:12.129Z,7.47
2018-04-07T20:30:38.405Z,6.50
2018-04-07T20:33:04.720Z,7.97
2018-04-07T20:35:31.795Z,5.43
2018-04-07T20:37:58.078Z,7.30
2018-04-07T20:40:24.377Z,5.93
2018-04-07T20:42:50.690Z,5.07
2018-04-07T20:45:17.000Z,6.57
2018-04-07T20:47:43.311Z,8.93
2018-04-07T20:50:10.333Z,6.53
2018-04-07T20:52:37.567Z,7.13
2018-04-07T20:55:03.888Z,6.77
2018-04-07T20:57:30.208Z,6.47
2018-04-07T20:59:56.493Z,8.43
2018-04-07T21:02:23.533Z,7.80
2018-04-07T21:04:49.836Z,7.60
2018-04-07T21:07:16.138Z,7.13
2018-04-07T21:09:42.415Z,7.70
2018-04-07T21:12:08.797Z,7.67
2018-04-07T21:14:35.085Z,6.70
2018-04-07T21:17:01.381Z,7.13
2018-04-07T21:19:27.663Z,6.07
2018-04-07T21:21:54.673Z,7.27
2018-04-07T21:24:21.006Z,6.97
2018-04-07T21:26:47.324Z,6.20
2018-04-07T21:29:13.636Z,6.53
2018-04-07T21:31:39.929Z,8.87
2018-04-07T21:34:06.987Z,8.10
2018-04-07T21:36:34.026Z,8.30
2018-04-07T21:39:01.090Z,8.33
2018-04-07T21:41:28.125Z,8.43
2018-04-07T21:43:55.171Z,7.70
2018-04-07T21:46:22.232Z,8.23
2018-04-07T21:48:48.614Z,7.77
2018-04-07T21:51:14.916Z,7.93
2018-04-07T21:53:41.223Z,7.00
2018-04-07T21:56:08.274Z,6.87
2018-04-07T21:58:35.324Z,9.37
2018-04-07T22:01:02.381Z,8.50
2018-04-07T22:03:28.652Z,8.17
2018-04-07T22:05:54.976Z,7.33
2018-04-07T22:08:21.305Z,8.17
2018-04-07T22:10:47.660Z,7.57
2018-04-07T22:13:13.988Z,10.03
2018-04-07T22:15:40.348Z,7.63
2018-04-07T22:18:07.422Z,8.50
2018-04-07T22:20:33.740Z,8.00
2018-04-07T22:23:00.052Z,7.17
2018-04-07T22:25:27.135Z,6.90
2018-04-07T22:27:54.385Z,7.70
2018-04-07T22:30:20.811Z,7.47
2018-04-07T22:32:47.164Z,6.47
2018-04-07T22:35:13.598Z,7.00
2018-04-07T22:37:39.929Z,6.43
2018-04-07T22:40:06.318Z,8.00
2018-04-07T22:42:33.413Z,7.03
2018-04-07T22:44:59.721Z,7.13
2018-04-07T22:47:26.189Z,7.43
2018-04-07T22:49:52.490Z,6.40
2018-04-07T22:52:18.960Z,6.50
2018-04-07T22:54:45.257Z,7.10
2018-04-07T22:57:11.600Z,7.50
2018-04-07T22:59:38.498Z,6.50
2018-04-07T23:02:04.855Z,7.07
2018-04-07T23:04:31.134Z,5.83
2018-04-07T23:06:57.445Z,6.27
2018-04-07T23:09:23.785Z,6.63
2018-04-07T23:11:50.093Z,6.70
2018-04-07T23:14:16.663Z,7.67
2018-04-07T23:16:43.087Z,6.67
2018-04-07T23:19:09.497Z,6.00
2018-04-07T23:21:35.993Z,8.43
2018-04-07T23:24:03.245Z,6.97
2018-04-07T23:26:30.330Z,6.67
2018-04-07T23:28:57.031Z,6.70
2018-04-07T23:31:24.169Z,6.93
2018-04-07T23:33:50.460Z,6.17
2018-04-07T23:36:16.941Z,5.60
2018-04-07T23:38:43.252Z,6.30
2018-04-07T23:41:09.902Z,6.07
2018-04-07T23:43:36.252Z,8.23
2018-04-07T23:46:03.684Z,5.60
2018-04-07T23:48:30.162Z,6.27
2018-04-07T23:50:56.451Z,7.60
2018-04-07T23:53:22.743Z,6.10
2018-04-07T23:55:49.085Z,5.67
2018-04-07T23:58:15.623Z,5.17
